Terminal Aerodrome Forecast
Issued by NWS

Home | Current Version | Previous Version | Text Only | Print | Product List | Glossary On
Versions: 1 2 3 4 5 6 7 8 9 10 11 12
000
FTUS45 KRIW 201700
TAFBPI
TAF
KBPI 201720Z 2018/2118 VRB04KT P6SM VCSH SCT045 BKN060
     FM202300 VRB04KT 5SM -SN SCT020 OVC040
     FM210700 VRB06KT 4SM -SN BR SCT015 OVC030=

USA.gov is the U.S. government's official web portal to all federal, state and local government web resources and services.